Weather observations for the past three days for
Crockett, Houston County Airport
Imperial (Metric)
Date Time (cdt) Wind (mph) Vis. (mi.) Weather Sky Cond. Temperature (ºF) Relative Humidity Wind Chill (°F) Heat Index (°F) Pressure Precipitation (in)
Air Dwpt 6 hour altimeter (in) sea level (mb) 1 hr 3 hr 6 hr
Max. Min.
10 09:15 Calm 10.00 Fair CLR 69.8 69.8 100% 30 0.0
10 08:35 Calm 8.00 Fair CLR 71.6 71.6 100% 29.98 0.0
10 07:55 Calm 6.00 Fog/Mist CLR 69.8 69.8 100% 29.99 0.0
10 07:35 Calm 7.00 A Few Clouds FEW022 69.8 69.8 100% 29.98 0.0
10 07:15 Calm 7.00 Mostly Cloudy BKN022 69.8 69.8 100% 29.98 0.0
10 06:55 Calm 7.00 Overcast OVC021 69.8 69.8 100% 29.97 0.0
10 06:35 Calm 8.00 Overcast BKN016 OVC021 71.6 71.6 100% 29.95 0.0
10 06:15 Calm 9.00 Overcast OVC013 71.6 71.6 100% 29.94 0.0
10 05:55 Calm 9.00 Overcast OVC012 71.6 71.6 100% 29.93 0.0
10 05:35 Calm 9.00 Overcast OVC012 71.6 71.6 100% 29.9 0.0
10 05:15 Calm 8.00 Mostly Cloudy BKN010 71.6 71.6 100% 29.9 0.0
10 04:55 Calm 9.00 Mostly Cloudy BKN009 71.6 71.6 100% 29.9 0.0
10 04:35 Calm 9.00 Mostly Cloudy BKN009 71.6 71.6 100% 29.89 0.0
10 04:15 Calm 8.00 A Few Clouds FEW008 71.6 71.6 100% 29.86 0.0
10 03:35 Calm 7.00 A Few Clouds FEW008 69.8 69.8 100% 29.84 0.0
10 03:15 Calm 9.00 A Few Clouds FEW009 69.8 69.8 100% 29.84 0.0
10 02:55 Calm 10.00 Mostly Cloudy BKN009 71.6 71.6 100% 29.85 0.0
10 02:35 Calm 10.00 Mostly Cloudy BKN009 71.6 71.6 100% 29.86 0.0
10 02:15 Calm 10.00 A Few Clouds FEW008 69.8 69.8 100% 29.86 0.0
10 01:55 Calm 10.00 Fair CLR 69.8 69.8 100% 29.86 0.0
10 01:35 Calm 10.00 Fair CLR 69.8 69.8 100% 29.86 0.0
10 01:15 Calm 10.00 Fair CLR 69.8 69.8 100% 29.86 0.0
10 00:55 Calm 10.00 Fair CLR 69.8 69.8 100% 29.86 0.0
10 00:35 SE 6 10.00 Fair CLR 71.6 69.8 94% 29.86 0.0
10 00:15 SE 5 10.00 Fair CLR 71.6 69.8 94% 29.86 0.0
09 23:55 SE 6 10.00 Fair CLR 71.6 69.8 94% 29.86 0.0
09 23:35 Vrbl 5 10.00 Fair CLR 71.6 71.6 100% 29.87 0.0
09 23:15 SE 6 10.00 Fair CLR 73.4 71.6 94% 29.87 0.0
09 22:55 SE 7 10.00 Fair CLR 73.4 71.6 94% 29.87 0.0
09 22:15 E 6 G 13 10.00 Fair CLR 75.2 73.4 94% 74 29.86 0.0
09 21:55 E 7 7.00 Fair CLR 71.6 71.6 100% 29.84 0.0
09 21:35 Calm 7.00 Fair CLR 71.6 71.6 100% 29.83 0.0
09 21:15 Calm 8.00 Fair CLR 73.4 73.4 100% 29.82 0.0
09 20:55 Calm 8.00 Fair CLR 73.4 73.4 100% 29.81 0.0
09 20:35 Calm 8.00 Fair CLR 75.2 73.4 94% 74 29.81 0.0
09 20:15 Calm 7.00 Fair CLR 77 75.2 94% 78 29.8 0.0
09 19:55 Calm 7.00 Fair CLR 78.8 75.2 89% 82 29.79 0.0
09 19:35 Calm 9.00 Fair CLR 80.6 75.2 84% 86 29.78 0.0
09 19:15 Calm 10.00 NULL NULL 82.4 73.4 74% 88 29.78 0.0
09 18:55 Calm 10.00 NULL NULL 84.2 73.4 70% 91 29.77 0.0
09 18:35 Calm 10.00 NULL NULL 86 71.6 62% 92 29.77 0.0
09 18:15 Calm 10.00 NULL NULL 86 69.8 59% 91 29.77 0.0
09 17:55 Calm 9.00 NULL NULL 86 69.8 59% 91 29.76 0.0
09 17:35 Calm 9.00 NULL NULL 86 69.8 59% 91 29.77 0.0
09 17:15 Calm 10.00 Fair CLR 86 69.8 59% 91 29.76 0.0
09 16:55 Calm 10.00 Fair CLR 86 69.8 59% 91 29.76 0.0
09 16:35 Vrbl 6 10.00 Fair CLR 86 71.6 62% 92 29.77 0.0
09 16:15 W 6 10.00 Fair CLR 84.2 71.6 66% 90 29.78 0.0
09 15:55 Vrbl 5 10.00 NULL NULL 86 71.6 62% 92 29.79 0.0
09 15:35 W 3 10.00 NULL NULL 84.2 71.6 66% 90 29.8 0.0
09 15:15 W 3 9.00 NULL NULL 84.2 71.6 66% 90 29.8 0.0
09 14:55 SW 7 9.00 NULL NULL 86 71.6 62% 92 29.8 0.0
09 14:35 Vrbl 5 10.00 Fair CLR 86 73.4 66% 93 29.81 0.0
09 14:15 W 5 10.00 Fair CLR 84.2 73.4 70% 91 29.82 0.0
09 13:55 Calm 10.00 Fair CLR 84.2 73.4 70% 91 29.82 0.0
09 13:35 W 6 10.00 Fair CLR 82.4 73.4 74% 88 29.83 0.0
09 13:15 W 7 10.00 A Few Clouds FEW016 82.4 75.2 79% 89 29.83 0.0
09 12:55 S 6 10.00 A Few Clouds FEW016 80.6 75.2 84% 86 29.84 0.0
09 12:35 SW 6 10.00 Fair CLR 80.6 75.2 84% 86 29.85 0.0
09 12:15 Vrbl 6 10.00 A Few Clouds FEW010 FEW014 FEW019 78.8 75.2 89% 82 29.85 0.0
09 11:55 Calm 10.00 A Few Clouds FEW010 FEW016 78.8 77 94% 83 29.86 0.0
09 11:35 Calm 9.00 A Few Clouds FEW008 FEW015 78.8 75.2 89% 82 29.85 0.0
09 11:15 Calm 6.00 Fog/Mist FEW010 75.2 75.2 100% 73 29.86 0.0
09 10:55 SW 5 5.00 Fog/Mist FEW011 75.2 75.2 100% 73 29.86 0.0
09 10:35 Calm 3.00 Fog/Mist CLR 73.4 73.4 100% 29.85 0.0
09 10:15 Calm 3.00 Fog/Mist CLR 73.4 73.4 100% 29.85 0.0
09 09:55 Calm 3.00 Fog/Mist CLR 73.4 73.4 100% 29.85 0.0
09 09:35 Calm 1.75 Fog/Mist CLR 73.4 73.4 100% 29.84 0.0
09 09:15 SE 5 1.25 Fog/Mist CLR 73.4 73.4 100% 29.84 0.0
09 08:55 SE 7 0.75 Unknown Precip Fog/Mist VV005 73.4 73.4 100% 29.84 0.0
09 08:35 Calm 2.00 Fog/Mist FEW003 71.6 71.6 100% 29.85 0.0
09 08:15 Calm 1.25 Fog/Mist SCT002 71.6 71.6 100% 29.83 0.0
09 07:55 Calm 0.75 Fog/Mist BKN002 71.6 71.6 100% 29.83 0.0
09 07:35 Calm 1.25 Fog/Mist BKN002 71.6 71.6 100% 29.83 0.0
09 07:15 Calm 0.50 Fog/Mist BKN002 71.6 71.6 100% 29.82 0.0
09 06:55 Calm 0.25 Fog OVC002 71.6 71.6 100% 29.82 0.0
09 06:35 Calm 0.50 Fog/Mist OVC002 71.6 71.6 100% 29.83 0.0
09 06:15 Calm 0.25 Fog OVC002 71.6 71.6 100% 29.82 0.0
09 05:55 Calm 0.50 Fog/Mist OVC002 71.6 71.6 100% 29.83 0.0
09 05:35 Calm 1.50 Fog/Mist OVC002 71.6 71.6 100% 29.83 0.0
09 05:15 Calm 1.50 Fog/Mist OVC002 71.6 71.6 100% 29.82 0.0
09 04:55 Calm 1.50 Fog/Mist OVC002 71.6 71.6 100% 29.82 0.0
09 04:35 Calm 1.25 Fog/Mist BKN002 BKN007 71.6 71.6 100% 29.82 0.0
09 04:15 SE 6 0.50 Fog/Mist BKN002 71.6 71.6 100% 29.82 0.0
09 03:55 Calm 0.75 Light Rain Fog/Mist BKN002 71.6 71.6 100% 29.84 0.0
09 03:35 Calm 1.50 Light Rain Fog/Mist OVC003 71.6 71.6 100% 29.83 0.0
09 02:55 Calm 3.00 Fog/Mist BKN004 71.6 71.6 100% 29.85 0.0
09 02:35 Calm 4.00 Fog/Mist SCT004 71.6 71.6 100% 29.85 0.0
09 02:15 Calm 4.00 Fog/Mist FEW004 71.6 71.6 100% 29.85 0.0
09 01:55 Calm 5.00 Fog/Mist BKN004 71.6 71.6 100% 29.85 0.0
09 01:35 Calm 5.00 Fog/Mist BKN004 71.6 71.6 100% 29.84 0.0
09 01:15 Calm 6.00 Fog/Mist SCT005 71.6 71.6 100% 29.84 0.0
09 00:55 SE 5 G 12 8.00 A Few Clouds FEW006 71.6 71.6 100% 29.83 0.0
09 00:35 S 6 10.00 A Few Clouds FEW007 71.6 71.6 100% 29.83 0.0
09 00:15 SE 5 10.00 Mostly Cloudy BKN009 71.6 71.6 100% 29.83 0.0
08 23:55 SE 5 10.00 Overcast OVC010 71.6 71.6 100% 29.84 0.0
08 23:35 SE 5 10.00 Overcast OVC011 71.6 71.6 100% 29.84 0.0
08 23:15 Calm 10.00 Overcast OVC013 71.6 71.6 100% 29.84 0.0
08 22:55 Calm 10.00 Overcast OVC014 71.6 71.6 100% 29.83 0.0
08 22:35 Calm 10.00 Overcast OVC012 71.6 71.6 100% 29.83 0.0
08 22:15 Calm 10.00 Overcast OVC013 71.6 71.6 100% 29.82 0.0
08 21:55 Calm 10.00 Mostly Cloudy BKN014 71.6 71.6 100% 29.82 0.0
08 21:35 Calm 10.00 Partly Cloudy SCT015 71.6 71.6 100% 29.81 0.0
08 21:15 Calm 10.00 Overcast OVC015 71.6 71.6 100% 29.79 0.0
08 20:55 SE 6 10.00 Overcast OVC018 71.6 71.6 100% 29.79 0.0
08 20:35 SE 6 10.00 Overcast OVC018 71.6 71.6 100% 29.79 0.0
08 20:15 Calm 10.00 Partly Cloudy SCT019 73.4 71.6 94% 29.8 0.0
08 19:35 Vrbl 5 10.00 Fair CLR 75.2 69.8 83% 75 29.79 0.0
08 19:15 Calm 10.00 Fair CLR 75.2 69.8 83% 75 29.8 0.0
08 18:55 SE 6 10.00 A Few Clouds FEW029 75.2 69.8 83% 75 29.81 0.0
08 18:35 Vrbl 3 9.00 Partly Cloudy SCT019 SCT026 75.2 71.6 89% 75 29.82 0.0
08 18:15 Calm 10.00 Partly Cloudy SCT022 77 71.6 83% 78 29.81 0.0
08 17:55 Calm 10.00 A Few Clouds FEW020 FEW025 77 69.8 79% 79 29.81 0.0
08 17:15 Calm 10.00 Fair CLR 77 69.8 79% 79 29.82 0.0
08 16:55 SE 5 10.00 Fair CLR 77 69.8 79% 79 29.82 0.0
08 16:35 Vrbl 5 10.00 A Few Clouds FEW018 77 69.8 79% 79 29.82 0.0
08 16:15 Vrbl 6 10.00 Fair CLR 77 69.8 79% 79 29.82 0.0
08 15:55 Calm 10.00 Fair CLR 77 69.8 79% 79 29.83 0.0
08 15:35 SE 6 10.00 Fair CLR 77 69.8 79% 79 29.84 0.0
08 15:15 Calm 10.00 Fair CLR 73.4 68 83% 29.85 0.0
08 14:55 Calm 10.00 A Few Clouds FEW016 75.2 68 78% 76 29.85 0.0
08 14:35 Calm 10.00 A Few Clouds FEW014 75.2 68 78% 76 29.86 0.0
08 14:15 Calm 10.00 NULL NULL 73.4 68 83% 29.86 0.0
08 13:55 Calm 10.00 NULL NULL 75.2 69.8 83% 75 29.86 0.0
08 13:35 Vrbl 7 10.00 Fair CLR 73.4 68 83% 29.87 0.0
08 13:15 Vrbl 6 10.00 Fair CLR 71.6 68 88% 29.88 0.0
08 12:55 NE 7 10.00 Fair CLR 69.8 66.2 88% 29.9 0.0
08 12:35 NE 8 10.00 A Few Clouds FEW009 68 66.2 94% 29.91 0.0
08 12:15 NE 7 10.00 Fair CLR 66.2 66.2 100% 29.92 0.0
08 11:55 NE 8 10.00 Fair CLR 66.2 66.2 100% 29.92 0.0
08 11:35 NE 5 10.00 NULL NULL 66.2 66.2 100% 29.93 0.0
08 11:15 E 5 10.00 NULL NULL 66.2 66.2 100% 29.94 0.0
08 10:55 NE 3 6.00 Light Rain Fog/Mist CLR 64.4 64.4 100% 29.94 0.0 0.05
08 10:35 Calm 8.00 Light Rain CLR 66.2 64.4 94% 29.95 0.0
08 10:15 E 5 10.00 Fair CLR 66.2 64.4 94% 29.95 0.0
08 09:55 Vrbl 5 10.00 Fair CLR 66.2 64.4 94% 29.95 0.0
08 09:35 Calm 10.00 Thunderstorm in Vicinity CLR 64.4 62.6 94% 29.95 0.0
08 09:15 Calm 10.00 Fair CLR 64.4 64.4 100% 29.95 0.0
08 08:55 Calm 10.00 Fair CLR 62.6 62.6 100% 29.95 0.0
08 08:15 Calm 10.00 Thunderstorm in Vicinity CLR 62.6 62.6 100% 29.96 0.0
08 07:35 Calm 10.00 Thunderstorm in Vicinity Rain OVC029 62.6 60.8 94% 29.94 0.0
08 07:15 Calm 10.00 Thunderstorm in Vicinity OVC028 62.6 60.8 94% 29.95 0.0
08 06:55 NE 3 10.00 Thunderstorm in Vicinity OVC027 62.6 60.8 94% 29.94 0.0
08 06:35 N 7 10.00 Overcast OVC028 62.6 60.8 94% 29.93 0.0
08 06:15 Calm 10.00 Overcast OVC030 62.6 60.8 94% 29.95 0.0
08 05:55 Calm 10.00 Overcast OVC031 62.6 60.8 94% 29.95 0.0
08 05:35 Calm 10.00 Overcast OVC032 62.6 60.8 94% 29.95 0.0
08 05:15 NE 3 10.00 Overcast OVC033 62.6 59 88% 29.95 0.0
08 04:55 Calm 10.00 Overcast OVC035 62.6 59 88% 29.95 0.0
08 04:35 Calm 10.00 Overcast OVC035 62.6 59 88% 29.95 0.0
08 04:15 Calm 10.00 Overcast OVC034 62.6 59 88% 29.96 0.0
08 03:55 Calm 10.00 Overcast OVC034 60.8 59 94% 29.94 0.0
08 03:35 Calm 10.00 Overcast BKN034 BKN040 OVC048 60.8 59 94% 29.95 0.0
08 03:15 Calm 10.00 Partly Cloudy FEW039 SCT048 60.8 59 94% 29.95 0.0
08 02:35 NE 3 10.00 Partly Cloudy FEW035 SCT045 60.8 59 94% 29.96 0.0
08 02:15 N 6 10.00 Overcast BKN035 OVC044 60.8 59 94% 29.96 0.0
08 01:55 Calm 10.00 Mostly Cloudy SCT035 BKN045 60.8 59 94% 29.97 0.0
08 01:35 Calm 10.00 Fair CLR 59 59 100% 29.97 0.0
08 01:15 Calm 10.00 Fair CLR 60.8 59 94% 29.97 0.0
08 00:55 NE 5 10.00 Fair CLR 60.8 59 94% 29.96 0.0
08 00:35 Calm 10.00 Fair CLR 60.8 59 94% 29.97 0.0
08 00:15 Calm 10.00 Fair CLR 60.8 60.8 100% 29.98 0.0
07 23:55 Calm 10.00 Fair CLR 60.8 60.8 100% 29.97 0.0
07 23:35 NW 7 10.00 Fair CLR 60.8 59 94% 29.99 0.0
07 23:15 Calm 10.00 Fair CLR 60.8 59 94% 29.98 0.0
07 22:55 Calm 10.00 Fair CLR 60.8 59 94% 29.97 0.0
07 22:35 NE 5 10.00 Fair CLR 60.8 59 94% 29.96 0.0
07 21:55 N 6 10.00 Fair CLR 62.6 59 88% 29.98 0.0
07 21:35 N 5 10.00 Fair CLR 62.6 59 88% 29.97 0.0
07 21:15 E 6 10.00 A Few Clouds FEW130 FEW200 60.8 59 94% 29.95 0.0
07 20:55 Calm 10.00 A Few Clouds FEW130 FEW200 60.8 60.8 100% 29.96 0.0
07 20:35 Calm 10.00 Fair CLR 60.8 60.8 100% 29.95 0.0
07 20:15 Calm 10.00 Fair CLR 62.6 60.8 94% 29.97 0.0
07 19:55 Calm 10.00 Fair CLR 62.6 59 88% 29.98 0.0
07 19:35 NW 5 10.00 Fair CLR 62.6 60.8 94% 30 0.0
07 19:15 NW 5 10.00 Fair CLR 64.4 60.8 88% 30 0.0
07 18:55 Calm 10.00 Fair CLR 64.4 60.8 88% 29.97 0.0
07 18:35 Calm 10.00 Fair CLR 64.4 60.8 88% 29.98 0.0
07 18:15 Calm 10.00 Fair CLR 64.4 59 83% 29.96 0.0
07 17:55 Calm 10.00 Fair CLR 64.4 60.8 88% 29.97 0.0
07 17:35 N 3 10.00 Fair CLR 64.4 60.8 88% 29.99 0.0
07 17:15 Calm 10.00 Light Rain CLR 64.4 60.8 88% 29.99 0.0
07 16:55 NW 5 7.00 Light Rain CLR 64.4 60.8 88% 29.98 0.0
07 16:35 N 6 10.00 Fair CLR 66.2 55.4 68% 29.99 0.0
07 16:15 NW 7 10.00 Fair CLR 68 57.2 69% 30 0.0
07 15:55 N 7 10.00 Fair CLR 69.8 55.4 60% 29.99 0.0
07 15:35 Vrbl 5 G 14 10.00 Fair CLR 69.8 55.4 60% 29.99 0.0
07 15:15 NE 9 8.00 Fair CLR 69.8 55.4 60% 29.98 0.0
07 14:35 Calm 10.00 Fair CLR 68 53.6 60% 30.03 0.0
07 14:15 NE 5 10.00 Fair CLR 68 53.6 60% 30.02 0.0
07 13:55 Vrbl 5 G 13 10.00 Fair CLR 66.2 51.8 60% 30.04 0.0
07 13:35 NE 10 10.00 Fair CLR 66.2 51.8 60% 30.01 0.0
07 13:15 NE 9 10.00 Fair CLR 66.2 53.6 64% 30.04 0.0
07 12:55 N 7 G 14 10.00 Fair CLR 66.2 51.8 60% 30.05 0.0
07 12:15 N 8 10.00 Fair CLR 64.4 51.8 64% 30.05 0.0
07 11:55 N 8 10.00 Fair CLR 64.4 51.8 64% 30.05 0.0
07 11:35 Vrbl 7 G 15 10.00 Fair CLR 66.2 51.8 60% 30.04 0.0
07 10:55 NE 9 G 15 10.00 Fair CLR 62.6 51.8 68% 30.03 0.0
07 10:35 Vrbl 7 10.00 Fair CLR 62.6 51.8 68% 30.07 0.0
07 10:15 N 9 G 16 10.00 Fair CLR 60.8 50 68% 30.06 0.0
07 09:55 N 10 G 16 10.00 Fair CLR 60.8 50 68% 30.07 0.0
07 09:35 N 9 10.00 Fair CLR 60.8 50 68% 30.08 0.0
Date Time (cdt) Wind (mph) Vis. (mi.) Weather Sky Cond. Air Dwpt Max. Min. Relative Humidity Wind Chill (°F) Heat Index (°F) altimeter (in) sea level (mb) 1 hr 3 hr 6 hr
6 hour
Temperature (ºF) Pressure Precipitation (in)